^^
Meteo Knjazevac Station Historical Data
Daily Summary for April 7, 2021 Units:  Both    English   Metric
Daily Weekly Monthly Yearly Custom
  High: Low: Average:
Temperature: 40.8 °F /  4.9 °C 39.4 °F /  4.1 °C 40 °F /  4.4 °C
Dew Point: 40.6 °F /  4.8 °C 39.1 °F /  3.9 °C 39.7 °F /  4.3 °C
Humidity: 99% 98% 99%
Wind Speed: 7mph /  11.3km/h - 2.8mph /  4.5km/h
Wind Gust: 14mph /  22.5km/h - -
Wind- - SSE
Pressure: 30.05 in /  1017.5 hPa 29.92 in /  1013.1 hPa -
Precipitation: 0.17 in /  4.32 mm    
Historical Graphs
 
 
Tabular Data for April 7, 2021
Time Temperature Dew Point Pressure Wind Wind Speed Wind Gust Humidity Rainfall Rate (Hourly) solar Conditions
00:00 40.1 °F /  4.5 °C 39.6 °F /  4.2 °C 29.95in /  1014.1hPa NNE 5mph /  8km/h 8mph /  12.9km/h 98% 0.00in /  0mm 0 W/m2
00:10 40.1 °F /  4.5 °C 39.5 °F /  4.2 °C 29.95in /  1014.1hPa NNE 3mph /  4.8km/h 7mph /  11.3km/h 98% 0.00in /  0mm 0 W/m2
00:20 39.9 °F /  4.4 °C 39.7 °F /  4.3 °C 29.95in /  1014.1hPa NNE 3mph /  4.8km/h 5mph /  8km/h 99% 0.00in /  0mm 0 W/m2
00:30 39.7 °F /  4.3 °C 39.5 °F /  4.2 °C 29.95in /  1014.1hPa NNE 3mph /  4.8km/h 8mph /  12.9km/h 99% 0.00in /  0mm 0 W/m2
00:40 39.6 °F /  4.2 °C 39.3 °F /  4.1 °C 29.94in /  1013.8hPa NNE 3mph /  4.8km/h 6mph /  9.7km/h 99% 0.00in /  0mm 0 W/m2
00:50 39.6 °F /  4.2 °C 39.3 °F /  4.1 °C 29.94in /  1013.8hPa NNE 3mph /  4.8km/h 7mph /  11.3km/h 99% 0.00in /  0mm 0 W/m2
01:00 39.6 °F /  4.2 °C 39.3 °F /  4.1 °C 29.94in /  1013.8hPa NNE 2mph /  3.2km/h 7mph /  11.3km/h 99% 0.00in /  0mm 0 W/m2
01:10 39.6 °F /  4.2 °C 39.3 °F /  4.1 °C 29.94in /  1013.8hPa NNE 2mph /  3.2km/h 7mph /  11.3km/h 99% 0.00in /  0mm 0 W/m2
01:20 39.6 °F /  4.2 °C 39.3 °F /  4.1 °C 29.94in /  1013.8hPa North 1mph /  1.6km/h 4mph /  6.4km/h 99% 0.00in /  0mm 0 W/m2
01:30 39.6 °F /  4.2 °C 39.3 °F /  4.1 °C 29.94in /  1013.8hPa WNW 1mph /  1.6km/h 6mph /  9.7km/h 99% 0.01in /  0.25mm 0 W/m2
01:40 39.6 °F /  4.2 °C 39.3 °F /  4.1 °C 29.94in /  1013.8hPa North 1mph /  1.6km/h 4mph /  6.4km/h 99% 0.00in /  0mm 0 W/m2
01:50 39.7 °F /  4.3 °C 39.5 °F /  4.2 °C 29.94in /  1013.8hPa NNE 1mph /  1.6km/h 5mph /  8km/h 99% 0.00in /  0mm 0 W/m2
02:00 39.7 °F /  4.3 °C 39.5 °F /  4.2 °C 29.94in /  1013.8hPa NNW 2mph /  3.2km/h 3mph /  4.8km/h 99% 0.00in /  0mm 0 W/m2
02:10 39.7 °F /  4.3 °C 39.5 °F /  4.2 °C 29.94in /  1013.8hPa North 1mph /  1.6km/h 2mph /  3.2km/h 99% 0.00in /  0mm 0 W/m2
02:20 39.7 °F /  4.3 °C 39.5 °F /  4.2 °C 29.94in /  1013.8hPa Calm   3mph /  4.8km/h 99% 0.00in /  0mm 0 W/m2
02:30 39.7 °F /  4.3 °C 39.5 °F /  4.2 °C 29.94in /  1013.8hPa Calm   2mph /  3.2km/h 99% 0.00in /  0mm 0 W/m2
02:40 39.6 °F /  4.2 °C 39.3 °F /  4.1 °C 29.93in /  1013.4hPa West 1mph /  1.6km/h 3mph /  4.8km/h 99% 0.00in /  0mm 0 W/m2
02:50 39.6 °F /  4.2 °C 39.3 °F /  4.1 °C 29.93in /  1013.4hPa WNW 2mph /  3.2km/h 4mph /  6.4km/h 99% 0.00in /  0mm 0 W/m2
03:00 39.7 °F /  4.3 °C 39.5 °F /  4.2 °C 29.92in /  1013.1hPa NNE 1mph /  1.6km/h 4mph /  6.4km/h 99% 0.01in /  0.25mm 0 W/m2
03:10 39.7 °F /  4.3 °C 39.5 °F /  4.2 °C 29.92in /  1013.1hPa NNE 2mph /  3.2km/h 5mph /  8km/h 99% 0.00in /  0mm 0 W/m2
03:20 39.7 °F /  4.3 °C 39.5 °F /  4.2 °C 29.92in /  1013.1hPa North 2mph /  3.2km/h 7mph /  11.3km/h 99% 0.00in /  0mm 0 W/m2
03:30 39.7 °F /  4.3 °C 39.5 °F /  4.2 °C 29.93in /  1013.4hPa NNE 3mph /  4.8km/h 9mph /  14.5km/h 99% 0.00in /  0mm 0 W/m2
03:40 39.7 °F /  4.3 °C 39.5 °F /  4.2 °C 29.94in /  1013.8hPa Calm   8mph /  12.9km/h 99% 0.00in /  0mm 0 W/m2
03:50 39.6 °F /  4.2 °C 39.3 °F /  4.1 °C 29.94in /  1013.8hPa NNE 5mph /  8km/h 9mph /  14.5km/h 99% 0.01in /  0.25mm 0 W/m2
04:00 39.6 °F /  4.2 °C 39.3 °F /  4.1 °C 29.94in /  1013.8hPa NNE 7mph /  11.3km/h 13mph /  20.9km/h 99% 0.01in /  0.25mm 0 W/m2
04:10 39.4 °F /  4.1 °C 39.1 °F /  3.9 °C 29.94in /  1013.8hPa NNE 5mph /  8km/h 12mph /  19.3km/h 99% 0.00in /  0mm 0 W/m2
04:20 39.4 °F /  4.1 °C 39.1 °F /  3.9 °C 29.95in /  1014.1hPa NNE 6mph /  9.7km/h 14mph /  22.5km/h 99% 0.00in /  0mm 0 W/m2
04:30 39.6 °F /  4.2 °C 39.3 °F /  4.1 °C 29.96in /  1014.4hPa NNE 6mph /  9.7km/h 14mph /  22.5km/h 99% 0.01in /  0.25mm 0 W/m2
04:40 39.7 °F /  4.3 °C 39.5 °F /  4.2 °C 29.96in /  1014.4hPa NNE 5mph /  8km/h 10mph /  16.1km/h 99% 0.01in /  0.25mm 0 W/m2
04:50 40.1 °F /  4.5 °C 39.8 °F /  4.3 °C 29.97in /  1014.8hPa NNW 5mph /  8km/h 13mph /  20.9km/h 99% 0.00in /  0mm 0 W/m2
05:00 40.6 °F /  4.8 °C 40.4 °F /  4.7 °C 29.98in /  1015.1hPa WNW 5mph /  8km/h 13mph /  20.9km/h 99% 0.00in /  0mm 0 W/m2
05:10 40.8 °F /  4.9 °C 40.6 °F /  4.8 °C 29.98in /  1015.1hPa WNW 7mph /  11.3km/h 12mph /  19.3km/h 99% 0.00in /  0mm 0 W/m2
05:20 40.8 °F /  4.9 °C 40.6 °F /  4.8 °C 29.98in /  1015.1hPa WSW 5mph /  8km/h 12mph /  19.3km/h 99% 0.01in /  0.25mm 0 W/m2
05:30 40.8 °F /  4.9 °C 40.6 °F /  4.8 °C 29.98in /  1015.1hPa WSW 5mph /  8km/h 10mph /  16.1km/h 99% 0.00in /  0mm 0 W/m2
05:40 40.8 °F /  4.9 °C 40.6 °F /  4.8 °C 29.99in /  1015.5hPa West 1mph /  1.6km/h 9mph /  14.5km/h 99% 0.00in /  0mm 0 W/m2
05:50 40.8 °F /  4.9 °C 40.6 °F /  4.8 °C 29.99in /  1015.5hPa WSW 3mph /  4.8km/h 7mph /  11.3km/h 99% 0.00in /  0mm 0 W/m2
06:00 40.6 °F /  4.8 °C 40.4 °F /  4.7 °C 30.00in /  1015.8hPa WSW 3mph /  4.8km/h 7mph /  11.3km/h 99% 0.00in /  0mm 0 W/m2
06:10 40.6 °F /  4.8 °C 40.4 °F /  4.7 °C 30.01in /  1016.1hPa WSW 2mph /  3.2km/h 7mph /  11.3km/h 99% 0.01in /  0.25mm 0 W/m2
06:20 40.6 °F /  4.8 °C 40.4 °F /  4.7 °C 30.01in /  1016.1hPa WSW 3mph /  4.8km/h 5mph /  8km/h 99% 0.01in /  0.25mm 0 W/m2
06:30 40.5 °F /  4.7 °C 40.2 °F /  4.6 °C 30.01in /  1016.1hPa West 3mph /  4.8km/h 10mph /  16.1km/h 99% 0.02in /  0.51mm 0 W/m2
06:40 40.5 °F /  4.7 °C 40.2 °F /  4.6 °C 30.01in /  1016.1hPa West 2mph /  3.2km/h 7mph /  11.3km/h 99% 0.02in /  0.51mm 0 W/m2
06:50 40.3 °F /  4.6 °C 40 °F /  4.4 °C 30.02in /  1016.5hPa SW 3mph /  4.8km/h 6mph /  9.7km/h 99% 0.01in /  0.25mm 0 W/m2
07:00 40.3 °F /  4.6 °C 40 °F /  4.4 °C 30.01in /  1016.1hPa Calm   5mph /  8km/h 99% 0.01in /  0.25mm 0 W/m2
07:10 40.1 °F /  4.5 °C 39.8 °F /  4.3 °C 30.02in /  1016.5hPa SSW 2mph /  3.2km/h 5mph /  8km/h 99% 0.00in /  0mm 0 W/m2
07:20 40.1 °F /  4.5 °C 39.8 °F /  4.3 °C 30.02in /  1016.5hPa SE 2mph /  3.2km/h 5mph /  8km/h 99% 0.00in /  0mm 2 W/m2
07:30 40.1 °F /  4.5 °C 39.8 °F /  4.3 °C 30.02in /  1016.5hPa East 3mph /  4.8km/h 5mph /  8km/h 99% 0.00in /  0mm 4 W/m2
07:40 40.1 °F /  4.5 °C 39.8 °F /  4.3 °C 30.03in /  1016.8hPa Calm   5mph /  8km/h 99% 0.00in /  0mm 3 W/m2
07:50 40.1 °F /  4.5 °C 39.8 °F /  4.3 °C 30.03in /  1016.8hPa SSW 3mph /  4.8km/h 5mph /  8km/h 99% 0.01in /  0.25mm 7 W/m2
08:00 39.9 °F /  4.4 °C 39.7 °F /  4.3 °C 30.04in /  1017.2hPa SSW 2mph /  3.2km/h 5mph /  8km/h 99% 0.00in /  0mm 10 W/m2
08:10 39.7 °F /  4.3 °C 39.5 °F /  4.2 °C 30.05in /  1017.5hPa SSW 3mph /  4.8km/h 5mph /  8km/h 99% 0.00in /  0mm 13 W/m2
Knjazevac, Serbia
Compliments of Weather Underground - 2 mb